Time;durP1;ratioP1;P1;durP2;ratioP2;P2;SDS_P1;SDS_P2;PMS_P1;PMS_P2;Temp;Humidity;BMP_temperature;BMP_pressure;BME280_temperature;BME280_humidity;BME280_pressure;Samples;Min_cycle;Max_cycle;Signal;HPM_P1;HPM_P2
2024/01/18 00:03:10;;;;;;;13.70;6.90;;;;;;;;;;103707;1289;546102;-73
2024/01/18 00:06:43;;;;;;;25.10;12.80;;;;;;;;;;104010;1289;545025;-73
2024/01/18 00:10:26;;;;;;;41.10;18.70;;;;;;;;;;103668;1290;545067;-73
2024/01/18 00:14:02;;;;;;;21.40;9.40;;;;;;;;;;103737;1291;545951;-73
2024/01/18 00:17:39;;;;;;;14.20;6.50;;;;;;;;;;103671;1292;544771;-73
2024/01/18 00:21:17;;;;;;;11.20;5.50;;;;;;;;;;103682;1289;545324;-73
2024/01/18 00:24:54;;;;;;;13.70;5.70;;;;;;;;;;103861;1301;544700;-73
2024/01/18 00:28:32;;;;;;;11.60;5.10;;;;;;;;;;103719;1289;545363;-73
2024/01/18 00:32:10;;;;;;;11.50;4.90;;;;;;;;;;103631;1291;544779;-72
2024/01/18 00:35:48;;;;;;;11.10;4.80;;;;;;;;;;103794;1292;546460;-73
2024/01/18 00:39:24;;;;;;;7.80;3.60;;;;;;;;;;103696;1290;545045;-74
2024/01/18 00:43:01;;;;;;;7.10;3.80;;;;;;;;;;103744;1289;544961;-73
2024/01/18 00:46:39;;;;;;;7.50;3.60;;;;;;;;;;103780;1292;545571;-73
2024/01/18 00:50:16;;;;;;;7.80;3.80;;;;;;;;;;103726;1292;545752;-73
2024/01/18 00:53:54;;;;;;;6.80;3.50;;;;;;;;;;103748;1291;545409;-73
2024/01/18 00:57:33;;;;;;;7.50;4.00;;;;;;;;;;103769;1289;545363;-73
2024/01/18 01:01:09;;;;;;;8.60;4.10;;;;;;;;;;103839;1289;544965;-73
2024/01/18 01:04:46;;;;;;;20.20;9.10;;;;;;;;;;103786;1288;544843;-72
2024/01/18 01:08:24;;;;;;;21.50;10.40;;;;;;;;;;103768;1290;544779;-72
2024/01/18 01:12:01;;;;;;;18.50;9.00;;;;;;;;;;103599;1291;545057;-72
2024/01/18 01:15:39;;;;;;;15.90;8.70;;;;;;;;;;103761;1295;544789;-72
2024/01/18 01:19:16;;;;;;;15.10;9.10;;;;;;;;;;103756;1289;545504;-72
2024/01/18 01:22:54;;;;;;;13.50;7.90;;;;;;;;;;103744;1290;544953;-72
2024/01/18 01:26:31;;;;;;;10.50;6.40;;;;;;;;;;103579;1295;545783;-72
2024/01/18 01:30:10;;;;;;;12.90;7.40;;;;;;;;;;103831;1289;544821;-72
2024/01/18 01:33:46;;;;;;;12.00;7.00;;;;;;;;;;103741;1295;544911;-72
2024/01/18 01:37:23;;;;;;;13.70;8.30;;;;;;;;;;103808;1292;545741;-72
2024/01/18 01:40:56;;;;;;;15.00;9.10;;;;;;;;;;103772;1288;544968;-72
2024/01/18 01:44:38;;;;;;;13.80;9.10;;;;;;;;;;103746;1289;545679;-72
2024/01/18 01:48:21;;;;;;;13.40;8.30;;;;;;;;;;103907;1288;547980;-71
2024/01/18 01:51:51;;;;;;;12.40;7.40;;;;;;;;;;103737;1289;545400;-72
2024/01/18 01:55:37;;;;;;;12.80;7.70;;;;;;;;;;103538;1289;548420;-72
2024/01/18 01:59:09;;;;;;;12.20;7.60;;;;;;;;;;103745;1289;544952;-72
2024/01/18 02:02:42;;;;;;;13.20;8.40;;;;;;;;;;103891;1289;546196;-72
2024/01/18 02:06:23;;;;;;;14.00;9.00;;;;;;;;;;103712;1289;544808;-72
2024/01/18 02:10:06;;;;;;;14.40;8.50;;;;;;;;;;103504;1295;548142;-72
2024/01/18 02:13:39;;;;;;;15.10;8.80;;;;;;;;;;103804;1289;544776;-74
2024/01/18 02:17:14;;;;;;;14.30;9.30;;;;;;;;;;103731;1301;545507;-72
2024/01/18 02:20:52;;;;;;;14.40;8.90;;;;;;;;;;103801;1289;544930;-72
2024/01/18 02:24:41;;;;;;;14.40;8.80;;;;;;;;;;103761;1295;544985;-72
2024/01/18 02:28:08;;;;;;;15.90;10.10;;;;;;;;;;103883;1299;545703;-72
2024/01/18 02:31:45;;;;;;;17.80;9.50;;;;;;;;;;104055;1288;545137;-71
2024/01/18 02:35:20;;;;;;;17.40;11.20;;;;;;;;;;103723;1289;544991;-72
2024/01/18 02:38:56;;;;;;;17.50;11.50;;;;;;;;;;103853;1289;544833;-71
2024/01/18 02:42:43;;;;;;;19.90;11.80;;;;;;;;;;103495;1291;548526;-72
2024/01/18 02:46:17;;;;;;;18.70;11.70;;;;;;;;;;103680;1292;544850;-72
2024/01/18 02:49:53;;;;;;;18.40;11.00;;;;;;;;;;103792;1288;544847;-72
2024/01/18 02:53:30;;;;;;;17.50;11.30;;;;;;;;;;103681;1289;544931;-71
2024/01/18 02:57:08;;;;;;;16.50;11.10;;;;;;;;;;103708;1288;545141;-72
2024/01/18 03:00:45;;;;;;;18.20;11.60;;;;;;;;;;103751;1289;544747;-73
2024/01/18 03:04:22;;;;;;;19.90;12.80;;;;;;;;;;103785;1288;545676;-73
2024/01/18 03:08:00;;;;;;;18.70;12.50;;;;;;;;;;103661;1295;544882;-72
2024/01/18 03:11:38;;;;;;;21.00;12.80;;;;;;;;;;103711;1292;545705;-73
2024/01/18 03:15:14;;;;;;;20.20;14.10;;;;;;;;;;103606;1295;545518;-72
2024/01/18 03:18:52;;;;;;;23.40;15.30;;;;;;;;;;103881;1290;544853;-73
2024/01/18 03:22:29;;;;;;;24.00;14.80;;;;;;;;;;103795;1291;544959;-71
2024/01/18 03:26:08;;;;;;;22.40;15.30;;;;;;;;;;103778;1302;545456;-72
2024/01/18 03:29:44;;;;;;;28.20;18.60;;;;;;;;;;103742;1292;544778;-72
2024/01/18 03:33:22;;;;;;;30.30;20.90;;;;;;;;;;103812;1289;544863;-71
2024/01/18 03:37:00;;;;;;;29.20;20.90;;;;;;;;;;103645;1289;545028;-72
2024/01/18 03:40:43;;;;;;;30.30;21.30;;;;;;;;;;103481;1292;548043;-71
2024/01/18 03:44:20;;;;;;;28.00;20.30;;;;;;;;;;103490;1292;547788;-71
2024/01/18 03:47:53;;;;;;;43.60;27.40;;;;;;;;;;103781;1289;545378;-71
2024/01/18 03:51:29;;;;;;;37.70;26.60;;;;;;;;;;103752;1291;544870;-72
2024/01/18 03:55:07;;;;;;;41.30;26.30;;;;;;;;;;103783;1292;545697;-71
2024/01/18 03:58:44;;;;;;;40.80;27.30;;;;;;;;;;103691;1295;544922;-70
2024/01/18 04:02:22;;;;;;;59.10;34.40;;;;;;;;;;103713;1289;545987;-72
2024/01/18 04:05:59;;;;;;;59.60;33.20;;;;;;;;;;103907;1288;545231;-72
2024/01/18 04:09:43;;;;;;;46.80;26.50;;;;;;;;;;103450;1291;547942;-72
2024/01/18 04:13:14;;;;;;;39.30;23.30;;;;;;;;;;104014;1293;544887;-71
2024/01/18 04:16:52;;;;;;;34.60;20.30;;;;;;;;;;103671;1292;545709;-71
2024/01/18 04:20:30;;;;;;;28.80;17.80;;;;;;;;;;103635;1295;545568;-72
2024/01/18 04:24:07;;;;;;;23.00;15.50;;;;;;;;;;103675;1290;545018;-71
2024/01/18 04:27:43;;;;;;;25.10;16.80;;;;;;;;;;103723;1290;545013;-71
2024/01/18 04:31:21;;;;;;;33.40;22.00;;;;;;;;;;103799;1289;544916;-71
2024/01/18 04:34:55;;;;;;;32.50;21.00;;;;;;;;;;103763;1295;544809;-71
2024/01/18 04:38:37;;;;;;;32.20;20.10;;;;;;;;;;103760;1289;545264;-71
2024/01/18 04:42:15;;;;;;;27.60;19.10;;;;;;;;;;103574;1291;544984;-71
2024/01/18 04:45:52;;;;;;;27.00;19.20;;;;;;;;;;103700;1292;544989;-71
2024/01/18 04:49:29;;;;;;;28.30;20.30;;;;;;;;;;103613;1289;544949;-70
2024/01/18 04:53:06;;;;;;;26.90;19.30;;;;;;;;;;103682;1291;544781;-71
2024/01/18 04:56:39;;;;;;;30.00;21.60;;;;;;;;;;103729;1289;545069;-71
2024/01/18 05:00:21;;;;;;;27.50;19.80;;;;;;;;;;103885;1289;544728;-71
2024/01/18 05:03:58;;;;;;;24.80;17.90;;;;;;;;;;103597;1295;545836;-71
2024/01/18 05:07:42;;;;;;;23.50;17.90;;;;;;;;;;103809;1290;545066;-70
2024/01/18 05:11:13;;;;;;;24.80;18.50;;;;;;;;;;103595;1305;545206;-71
2024/01/18 05:14:51;;;;;;;24.80;18.30;;;;;;;;;;103771;1289;544913;-70
2024/01/18 05:18:29;;;;;;;25.20;18.90;;;;;;;;;;103525;1289;544886;-70
2024/01/18 05:22:07;;;;;;;30.40;20.50;;;;;;;;;;103621;1292;545327;-70
2024/01/18 05:25:43;;;;;;;25.40;18.50;;;;;;;;;;103680;1291;545228;-70
2024/01/18 05:29:21;;;;;;;29.10;22.10;;;;;;;;;;103732;1289;545265;-71
2024/01/18 05:32:57;;;;;;;30.30;20.80;;;;;;;;;;103649;1290;544693;-70
2024/01/18 05:36:36;;;;;;;28.50;20.10;;;;;;;;;;103749;1289;546457;-71
2024/01/18 05:40:13;;;;;;;26.70;20.00;;;;;;;;;;104524;1285;545490;-72
2024/01/18 05:43:50;;;;;;;25.80;19.10;;;;;;;;;;103687;1291;544908;-71
2024/01/18 05:47:27;;;;;;;26.00;18.70;;;;;;;;;;103750;1290;544904;-71
2024/01/18 05:51:05;;;;;;;27.00;18.50;;;;;;;;;;103707;1293;545000;-72
2024/01/18 05:54:43;;;;;;;29.00;21.50;;;;;;;;;;103632;1296;545946;-72
2024/01/18 05:58:20;;;;;;;28.00;19.80;;;;;;;;;;103674;1290;545753;-72
2024/01/18 06:02:03;;;;;;;28.20;19.50;;;;;;;;;;103440;1291;548053;-72
2024/01/18 06:05:31;;;;;;;29.00;20.30;;;;;;;;;;103852;1289;545008;-72
2024/01/18 06:09:16;;;;;;;27.70;21.30;;;;;;;;;;103780;1291;545310;-72
2024/01/18 06:12:50;;;;;;;30.00;21.60;;;;;;;;;;103652;1289;544699;-73
2024/01/18 06:16:33;;;;;;;32.30;22.90;;;;;;;;;;103340;1294;547781;-72
2024/01/18 06:20:06;;;;;;;28.10;19.80;;;;;;;;;;103659;1291;544790;-72
2024/01/18 06:23:42;;;;;;;25.90;18.30;;;;;;;;;;103700;1293;545916;-72
2024/01/18 06:27:20;;;;;;;28.00;20.50;;;;;;;;;;103944;1289;544854;-72
2024/01/18 06:30:57;;;;;;;32.30;22.30;;;;;;;;;;104184;1285;544949;-72
2024/01/18 06:34:35;;;;;;;33.70;23.30;;;;;;;;;;104027;1289;544827;-72
2024/01/18 06:38:13;;;;;;;34.00;24.20;;;;;;;;;;103616;1289;545025;-73
2024/01/18 06:41:50;;;;;;;26.80;19.20;;;;;;;;;;103662;1290;546443;-72
2024/01/18 06:45:27;;;;;;;27.60;19.40;;;;;;;;;;103877;1289;544971;-72
2024/01/18 06:49:05;;;;;;;25.70;17.60;;;;;;;;;;103825;1289;545697;-73
2024/01/18 06:52:42;;;;;;;24.70;17.60;;;;;;;;;;104269;1284;544848;-73
2024/01/18 06:56:20;;;;;;;25.20;17.20;;;;;;;;;;103823;1289;544848;-72
2024/01/18 06:59:57;;;;;;;24.70;17.80;;;;;;;;;;103745;1289;546491;-73
2024/01/18 07:03:35;;;;;;;25.60;17.90;;;;;;;;;;103830;1292;545034;-72
2024/01/18 07:07:12;;;;;;;25.00;17.60;;;;;;;;;;103756;1289;545384;-73
2024/01/18 07:10:50;;;;;;;25.90;18.80;;;;;;;;;;103724;1292;544836;-72
2024/01/18 07:14:27;;;;;;;26.10;19.90;;;;;;;;;;103701;1292;545447;-72
2024/01/18 07:18:05;;;;;;;29.40;22.50;;;;;;;;;;104521;1285;545457;-73
2024/01/18 07:21:42;;;;;;;26.30;18.90;;;;;;;;;;103722;1290;545872;-73
2024/01/18 07:25:20;;;;;;;26.30;18.50;;;;;;;;;;103830;1290;545363;-72
2024/01/18 07:28:56;;;;;;;24.10;17.80;;;;;;;;;;103775;1290;546456;-72
2024/01/18 07:32:35;;;;;;;24.80;17.70;;;;;;;;;;103804;1292;545215;-72
2024/01/18 07:36:12;;;;;;;22.80;15.90;;;;;;;;;;103959;1289;545585;-73
2024/01/18 07:39:50;;;;;;;22.80;16.80;;;;;;;;;;103733;1289;544923;-72
2024/01/18 07:43:26;;;;;;;25.20;17.60;;;;;;;;;;103769;1295;545599;-72
2024/01/18 07:47:05;;;;;;;32.50;21.50;;;;;;;;;;103825;1288;544926;-72
2024/01/18 07:50:41;;;;;;;28.80;20.20;;;;;;;;;;103819;1289;545325;-72
2024/01/18 07:54:19;;;;;;;30.50;19.90;;;;;;;;;;103898;1287;544783;-72
2024/01/18 07:58:02;;;;;;;28.90;18.20;;;;;;;;;;103535;1291;547933;-73
2024/01/18 08:01:40;;;;;;;24.40;16.50;;;;;;;;;;103503;1292;548182;-72
2024/01/18 08:05:11;;;;;;;23.10;15.80;;;;;;;;;;103832;1290;546184;-72
2024/01/18 08:08:48;;;;;;;24.20;16.70;;;;;;;;;;103716;1292;544798;-72
2024/01/18 08:12:26;;;;;;;20.70;14.40;;;;;;;;;;103747;1291;547099;-72
2024/01/18 08:16:04;;;;;;;18.30;12.30;;;;;;;;;;103682;1295;545152;-72
2024/01/18 08:19:41;;;;;;;19.70;13.60;;;;;;;;;;103832;1289;545640;-72
2024/01/18 08:23:43;;;;;;;20.60;14.80;;;;;;;;;;103567;1289;545076;-72
2024/01/18 08:26:56;;;;;;;28.30;20.00;;;;;;;;;;103736;1292;545423;-73
2024/01/18 08:30:34;;;;;;;24.30;16.20;;;;;;;;;;103736;1290;544888;-72
2024/01/18 08:34:12;;;;;;;26.50;16.40;;;;;;;;;;103849;1291;544871;-73
2024/01/18 08:37:49;;;;;;;27.40;17.90;;;;;;;;;;103786;1291;544787;-72
2024/01/18 08:41:26;;;;;;;29.60;18.60;;;;;;;;;;103612;1295;545393;-72
2024/01/18 08:45:05;;;;;;;32.30;21.20;;;;;;;;;;103953;1289;545875;-73
2024/01/18 08:48:41;;;;;;;36.40;23.30;;;;;;;;;;103744;1289;544855;-72
2024/01/18 08:52:19;;;;;;;39.80;25.60;;;;;;;;;;103758;1294;544992;-72
2024/01/18 08:55:55;;;;;;;32.40;22.50;;;;;;;;;;103686;1291;544950;-72
2024/01/18 08:59:34;;;;;;;29.50;19.30;;;;;;;;;;103820;1290;544716;-72
2024/01/18 09:03:16;;;;;;;30.10;19.80;;;;;;;;;;103686;1292;548419;-72
2024/01/18 09:06:49;;;;;;;48.30;33.80;;;;;;;;;;103819;1291;544923;-72
2024/01/18 09:10:25;;;;;;;50.10;34.70;;;;;;;;;;103873;1289;546044;-72
2024/01/18 09:14:03;;;;;;;47.70;31.80;;;;;;;;;;103609;1295;545112;-72
2024/01/18 09:17:40;;;;;;;55.50;33.80;;;;;;;;;;103759;1292;545869;-72
2024/01/18 09:21:18;;;;;;;51.20;31.00;;;;;;;;;;103697;1291;545494;-72
2024/01/18 09:24:51;;;;;;;48.00;33.20;;;;;;;;;;103850;1291;545085;-73
2024/01/18 09:28:33;;;;;;;49.60;32.90;;;;;;;;;;103843;1292;546190;-72
2024/01/18 09:32:16;;;;;;;32.30;20.90;;;;;;;;;;103717;1295;547990;-72
2024/01/18 09:35:47;;;;;;;30.30;20.70;;;;;;;;;;103620;1291;545514;-72
2024/01/18 09:39:25;;;;;;;24.20;16.70;;;;;;;;;;103760;1288;544983;-72
2024/01/18 09:43:07;;;;;;;31.40;19.30;;;;;;;;;;103667;1295;548107;-73
2024/01/18 09:46:46;;;;;;;39.10;21.40;;;;;;;;;;103526;1290;545663;-72
2024/01/18 09:50:19;;;;;;;39.10;23.40;;;;;;;;;;103739;1291;544881;-72
2024/01/18 09:53:55;;;;;;;83.70;42.50;;;;;;;;;;103671;1291;545421;-72
2024/01/18 09:57:35;;;;;;;95.50;50.50;;;;;;;;;;103779;1290;545541;-72
2024/01/18 10:01:16;;;;;;;95.00;50.10;;;;;;;;;;103778;1289;546007;-72
2024/01/18 10:04:44;;;;;;;81.30;46.10;;;;;;;;;;103883;1288;544971;-72
2024/01/18 10:08:25;;;;;;;64.70;40.50;;;;;;;;;;103794;1291;545381;-72
2024/01/18 10:12:04;;;;;;;33.60;21.50;;;;;;;;;;103697;1295;545144;-73
2024/01/18 10:15:40;;;;;;;25.80;15.90;;;;;;;;;;103778;1292;545660;-72
2024/01/18 10:19:19;;;;;;;56.70;40.60;;;;;;;;;;103668;1291;545434;-73
2024/01/18 10:22:51;;;;;;;38.30;27.10;;;;;;;;;;103846;1289;545807;-72
2024/01/18 10:26:38;;;;;;;56.90;36.40;;;;;;;;;;103534;1291;548050;-72
2024/01/18 10:30:15;;;;;;;59.80;37.50;;;;;;;;;;103766;1289;545715;-73
2024/01/18 10:33:47;;;;;;;27.60;18.60;;;;;;;;;;103619;1292;544998;-73
2024/01/18 10:37:26;;;;;;;24.80;16.80;;;;;;;;;;103774;1289;545439;-72
2024/01/18 10:41:03;;;;;;;24.20;15.90;;;;;;;;;;103781;1294;546007;-73
2024/01/18 10:44:45;;;;;;;31.70;21.90;;;;;;;;;;103972;1289;545238;-72
2024/01/18 10:48:18;;;;;;;25.40;19.00;;;;;;;;;;103611;1292;544764;-73
2024/01/18 10:51:55;;;;;;;24.70;17.30;;;;;;;;;;103934;1292;545511;-73
2024/01/18 10:55:32;;;;;;;26.80;20.40;;;;;;;;;;103653;1292;544817;-72
2024/01/18 10:59:09;;;;;;;25.20;17.90;;;;;;;;;;103772;1290;545994;-73
2024/01/18 11:02:49;;;;;;;22.10;15.90;;;;;;;;;;103566;1295;545071;-73
2024/01/18 11:06:21;;;;;;;24.30;16.50;;;;;;;;;;103746;1292;545293;-73
2024/01/18 11:10:03;;;;;;;25.50;18.20;;;;;;;;;;103618;1292;545738;-73
2024/01/18 11:13:39;;;;;;;29.80;21.40;;;;;;;;;;103991;1287;545386;-73
2024/01/18 11:17:17;;;;;;;31.10;21.90;;;;;;;;;;103781;1289;545761;-73
2024/01/18 11:20:56;;;;;;;29.40;20.00;;;;;;;;;;103742;1295;545155;-73
2024/01/18 11:24:32;;;;;;;41.90;27.20;;;;;;;;;;103602;1291;545085;-73
2024/01/18 11:28:05;;;;;;;127.90;71.10;;;;;;;;;;103725;1289;545084;-73
2024/01/18 11:31:49;;;;;;;56.70;38.40;;;;;;;;;;103556;1295;545506;-73
2024/01/18 11:35:25;;;;;;;40.00;29.40;;;;;;;;;;103734;1289;544959;-74
2024/01/18 11:39:03;;;;;;;41.20;28.70;;;;;;;;;;103559;1291;546077;-73
2024/01/18 11:42:41;;;;;;;33.10;24.00;;;;;;;;;;103734;1295;545499;-73
2024/01/18 11:46:31;;;;;;;33.30;22.90;;;;;;;;;;103769;1289;545597;-72
2024/01/18 11:49:54;;;;;;;32.60;23.20;;;;;;;;;;103661;1297;545333;-74
2024/01/18 11:53:32;;;;;;;28.20;19.80;;;;;;;;;;103659;1295;545774;-72
2024/01/18 11:57:13;;;;;;;25.70;17.00;;;;;;;;;;103634;1291;544977;-73
2024/01/18 12:00:48;;;;;;;28.10;20.00;;;;;;;;;;103683;1291;544918;-73
2024/01/18 12:04:24;;;;;;;26.90;19.10;;;;;;;;;;103768;1292;545309;-73
2024/01/18 12:08:02;;;;;;;28.60;19.60;;;;;;;;;;103650;1291;545372;-73
2024/01/18 12:11:39;;;;;;;30.50;20.70;;;;;;;;;;103642;1295;545619;-73
2024/01/18 12:15:18;;;;;;;29.80;20.70;;;;;;;;;;103860;1289;545350;-73
2024/01/18 12:18:50;;;;;;;33.20;23.90;;;;;;;;;;103731;1291;544767;-72
2024/01/18 12:22:31;;;;;;;33.90;23.60;;;;;;;;;;103678;1294;545358;-73
2024/01/18 12:26:09;;;;;;;36.90;24.30;;;;;;;;;;103738;1292;545076;-73
2024/01/18 12:29:47;;;;;;;28.70;20.30;;;;;;;;;;103522;1291;544807;-72
2024/01/18 12:33:24;;;;;;;28.60;18.50;;;;;;;;;;103768;1292;545013;-72
2024/01/18 12:37:05;;;;;;;26.80;18.60;;;;;;;;;;103725;1289;544991;-73
2024/01/18 12:40:44;;;;;;;26.40;17.80;;;;;;;;;;103510;1292;548108;-73
2024/01/18 12:44:16;;;;;;;29.40;18.20;;;;;;;;;;103656;1291;545706;-73
2024/01/18 12:47:54;;;;;;;30.40;19.70;;;;;;;;;;104177;1286;544841;-73
2024/01/18 12:51:32;;;;;;;27.10;17.80;;;;;;;;;;103575;1290;544791;-72
2024/01/18 12:55:08;;;;;;;27.90;17.40;;;;;;;;;;103788;1289;544797;-72
2024/01/18 12:58:46;;;;;;;30.20;18.10;;;;;;;;;;103880;1289;546056;-73
2024/01/18 13:02:26;;;;;;;26.30;17.70;;;;;;;;;;103811;1301;545330;-73
2024/01/18 13:06:02;;;;;;;26.00;18.40;;;;;;;;;;103792;1290;545941;-73
2024/01/18 13:09:39;;;;;;;27.00;18.10;;;;;;;;;;103692;1291;546085;-72
2024/01/18 13:13:16;;;;;;;19.30;12.80;;;;;;;;;;103736;1293;544783;-73
2024/01/18 13:16:49;;;;;;;18.30;11.10;;;;;;;;;;103760;1293;545120;-73
2024/01/18 13:20:32;;;;;;;19.20;12.40;;;;;;;;;;103571;1291;545010;-73
2024/01/18 13:24:08;;;;;;;19.20;13.10;;;;;;;;;;103697;1288;544830;-73
2024/01/18 13:27:45;;;;;;;26.30;16.80;;;;;;;;;;103682;1291;545642;-73
2024/01/18 13:31:23;;;;;;;23.70;15.50;;;;;;;;;;103806;1296;544574;-73
2024/01/18 13:35:00;;;;;;;33.70;21.20;;;;;;;;;;103790;1289;544911;-72
2024/01/18 13:38:39;;;;;;;40.10;29.00;;;;;;;;;;103718;1289;544991;-72
2024/01/18 13:42:16;;;;;;;35.80;27.60;;;;;;;;;;103588;1295;545617;-72
2024/01/18 13:45:53;;;;;;;49.80;37.60;;;;;;;;;;103805;1289;545038;-72
2024/01/18 13:49:31;;;;;;;37.90;28.50;;;;;;;;;;103807;1292;544911;-72
2024/01/18 13:53:07;;;;;;;31.20;24.50;;;;;;;;;;103717;1292;544975;-72
2024/01/18 13:56:46;;;;;;;33.20;24.40;;;;;;;;;;103693;1292;545082;-72
2024/01/18 14:00:23;;;;;;;54.00;42.40;;;;;;;;;;103879;1294;544778;-72
2024/01/18 14:04:00;;;;;;;40.60;31.90;;;;;;;;;;103851;1289;545839;-72
2024/01/18 14:07:37;;;;;;;32.80;24.90;;;;;;;;;;104144;1286;544965;-73
2024/01/18 14:11:21;;;;;;;23.60;15.60;;;;;;;;;;103580;1291;547995;-74
2024/01/18 14:14:50;;;;;;;21.50;15.10;;;;;;;;;;103897;1289;544727;-74
2024/01/18 14:18:27;;;;;;;20.60;14.30;;;;;;;;;;103989;1289;545334;-72
2024/01/18 14:22:08;;;;;;;22.30;14.80;;;;;;;;;;103773;1289;544860;-72
2024/01/18 14:25:45;;;;;;;25.70;16.30;;;;;;;;;;104731;1282;545766;-72
2024/01/18 14:29:22;;;;;;;22.80;14.20;;;;;;;;;;103820;1292;545130;-72
2024/01/18 14:33:02;;;;;;;21.50;13.90;;;;;;;;;;103847;1289;545400;-72
2024/01/18 14:36:33;;;;;;;23.90;14.80;;;;;;;;;;103946;1290;544790;-72
2024/01/18 14:40:15;;;;;;;24.30;15.40;;;;;;;;;;103932;1291;544791;-72
2024/01/18 14:43:52;;;;;;;23.40;14.80;;;;;;;;;;103774;1290;545596;-73
2024/01/18 14:47:30;;;;;;;23.40;14.10;;;;;;;;;;103833;1295;544878;-72
2024/01/18 14:51:06;;;;;;;26.00;15.30;;;;;;;;;;103835;1292;545699;-72
2024/01/18 14:54:51;;;;;;;24.20;15.40;;;;;;;;;;103819;1289;544896;-72
2024/01/18 14:58:22;;;;;;;26.10;16.90;;;;;;;;;;103828;1295;545865;-72
2024/01/18 15:02:00;;;;;;;32.60;20.10;;;;;;;;;;103695;1305;544881;-73
2024/01/18 15:05:39;;;;;;;34.10;19.70;;;;;;;;;;103804;1291;544998;-72
2024/01/18 15:09:15;;;;;;;35.40;20.50;;;;;;;;;;103903;1288;545147;-72
2024/01/18 15:12:52;;;;;;;26.90;15.60;;;;;;;;;;103795;1292;545288;-73
2024/01/18 15:16:31;;;;;;;29.50;17.80;;;;;;;;;;103776;1288;544898;-71
2024/01/18 15:20:08;;;;;;;27.90;17.50;;;;;;;;;;103841;1295;545668;-72
2024/01/18 15:23:45;;;;;;;31.00;17.70;;;;;;;;;;103834;1290;544808;-72
2024/01/18 15:27:22;;;;;;;24.00;15.10;;;;;;;;;;103723;1289;544852;-72
2024/01/18 15:31:00;;;;;;;21.00;13.80;;;;;;;;;;103453;1295;545464;-72
2024/01/18 15:34:39;;;;;;;21.00;13.70;;;;;;;;;;104101;1286;544861;-72
2024/01/18 15:38:15;;;;;;;24.90;15.70;;;;;;;;;;103669;1290;545088;-72
2024/01/18 15:41:48;;;;;;;20.70;12.60;;;;;;;;;;103853;1292;544979;-72
2024/01/18 15:45:31;;;;;;;17.60;10.90;;;;;;;;;;103783;1291;544951;-73
2024/01/18 15:49:07;;;;;;;20.70;13.20;;;;;;;;;;103465;1294;545438;-72
2024/01/18 15:52:46;;;;;;;26.30;17.50;;;;;;;;;;103835;1288;544965;-73
2024/01/18 15:56:22;;;;;;;33.80;18.30;;;;;;;;;;103673;1291;544749;-73
2024/01/18 15:59:59;;;;;;;36.40;19.80;;;;;;;;;;103824;1289;544736;-72
2024/01/18 16:03:37;;;;;;;34.90;20.60;;;;;;;;;;103768;1291;546462;-73
2024/01/18 16:07:15;;;;;;;46.40;24.80;;;;;;;;;;103736;1295;546367;-72
2024/01/18 16:10:51;;;;;;;41.10;21.80;;;;;;;;;;103749;1291;544862;-72
2024/01/18 16:14:29;;;;;;;26.80;17.30;;;;;;;;;;103636;1291;545494;-72
2024/01/18 16:18:06;;;;;;;30.20;19.20;;;;;;;;;;103774;1292;545827;-73
2024/01/18 16:21:47;;;;;;;44.10;24.60;;;;;;;;;;103909;1292;545456;-74
2024/01/18 16:25:17;;;;;;;44.60;24.20;;;;;;;;;;104109;1289;546282;-73
2024/01/18 16:29:00;;;;;;;30.10;19.50;;;;;;;;;;103738;1292;544846;-73
2024/01/18 16:32:38;;;;;;;32.50;21.60;;;;;;;;;;103740;1292;545928;-73
2024/01/18 16:36:14;;;;;;;36.80;24.00;;;;;;;;;;104420;1285;545876;-73
2024/01/18 16:39:52;;;;;;;44.50;27.00;;;;;;;;;;103736;1293;546020;-73
2024/01/18 16:43:29;;;;;;;48.00;27.90;;;;;;;;;;103765;1290;545026;-73
2024/01/18 16:47:06;;;;;;;52.60;28.80;;;;;;;;;;103612;1291;545551;-73
2024/01/18 16:50:44;;;;;;;37.30;22.40;;;;;;;;;;103713;1289;545496;-73
2024/01/18 16:54:21;;;;;;;34.80;21.60;;;;;;;;;;104063;1289;544933;-73
2024/01/18 16:57:59;;;;;;;33.70;20.30;;;;;;;;;;103508;1292;545003;-72
2024/01/18 17:01:36;;;;;;;34.50;22.50;;;;;;;;;;103715;1291;544945;-74
2024/01/18 17:05:14;;;;;;;33.30;22.10;;;;;;;;;;103856;1292;545076;-72
2024/01/18 17:08:51;;;;;;;29.90;20.00;;;;;;;;;;103723;1290;544955;-73
2024/01/18 17:12:29;;;;;;;30.20;20.40;;;;;;;;;;103937;1292;545343;-72
2024/01/18 17:16:06;;;;;;;29.10;19.20;;;;;;;;;;103873;1289;545180;-73
2024/01/18 17:19:44;;;;;;;28.30;17.40;;;;;;;;;;104154;1290;545701;-74
2024/01/18 17:23:21;;;;;;;22.20;14.40;;;;;;;;;;103765;1291;545317;-72
2024/01/18 17:26:54;;;;;;;22.70;14.80;;;;;;;;;;103806;1289;545264;-73
2024/01/18 17:30:35;;;;;;;23.00;13.30;;;;;;;;;;103834;1295;545951;-73
2024/01/18 17:34:13;;;;;;;18.50;12.80;;;;;;;;;;103719;1291;545527;-73
2024/01/18 17:37:54;;;;;;;16.20;10.70;;;;;;;;;;103752;1292;545527;-72
2024/01/18 17:41:28;;;;;;;23.80;14.50;;;;;;;;;;103693;1289;545997;-73
2024/01/18 17:45:09;;;;;;;32.00;19.10;;;;;;;;;;104042;1290;545119;-73
2024/01/18 17:48:44;;;;;;;27.60;18.20;;;;;;;;;;103689;1291;544833;-73
2024/01/18 17:52:21;;;;;;;49.10;31.40;;;;;;;;;;104691;1283;544708;-73
2024/01/18 17:56:00;;;;;;;30.60;18.80;;;;;;;;;;103842;1292;544790;-73
2024/01/18 17:59:35;;;;;;;27.20;17.60;;;;;;;;;;104074;1300;544992;-73
2024/01/18 18:03:20;;;;;;;36.60;21.40;;;;;;;;;;104144;1285;548129;-73
2024/01/18 18:06:54;;;;;;;40.30;30.30;;;;;;;;;;103845;1288;548200;-73
2024/01/18 18:10:24;;;;;;;28.60;21.00;;;;;;;;;;103844;1292;544776;-73
2024/01/18 18:14:06;;;;;;;56.40;28.50;;;;;;;;;;103662;1291;545152;-73
2024/01/18 18:17:48;;;;;;;29.70;17.70;;;;;;;;;;103642;1291;548011;-73
2024/01/18 18:21:20;;;;;;;23.00;13.30;;;;;;;;;;104081;1289;545594;-73
2024/01/18 18:24:58;;;;;;;18.10;9.90;;;;;;;;;;103792;1291;545762;-73
2024/01/18 18:28:34;;;;;;;16.40;10.40;;;;;;;;;;103840;1292;544978;-74
2024/01/18 18:32:13;;;;;;;17.10;11.20;;;;;;;;;;103732;1290;545171;-73
2024/01/18 18:35:49;;;;;;;20.00;11.20;;;;;;;;;;103671;1292;545282;-73
2024/01/18 18:39:23;;;;;;;15.40;8.60;;;;;;;;;;103831;1294;545759;-73
2024/01/18 18:43:04;;;;;;;14.60;8.30;;;;;;;;;;103779;1291;545238;-73
2024/01/18 18:46:43;;;;;;;16.00;8.90;;;;;;;;;;103513;1295;546158;-73
2024/01/18 18:50:19;;;;;;;19.80;11.30;;;;;;;;;;103778;1292;544921;-73
2024/01/18 18:53:53;;;;;;;18.60;11.60;;;;;;;;;;103809;1288;545110;-72
2024/01/18 18:57:34;;;;;;;18.70;9.40;;;;;;;;;;103765;1289;544837;-73
2024/01/18 19:01:12;;;;;;;19.70;11.00;;;;;;;;;;103813;1291;544903;-72
2024/01/18 19:04:50;;;;;;;24.60;14.70;;;;;;;;;;103817;1291;545696;-73
2024/01/18 19:08:28;;;;;;;22.80;13.60;;;;;;;;;;103828;1292;545078;-73
2024/01/18 19:12:04;;;;;;;23.40;12.30;;;;;;;;;;103760;1292;544991;-72
2024/01/18 19:15:42;;;;;;;29.80;18.30;;;;;;;;;;103749;1290;545928;-73
2024/01/18 19:19:19;;;;;;;25.00;15.60;;;;;;;;;;103705;1295;546285;-73
2024/01/18 19:22:57;;;;;;;25.50;15.70;;;;;;;;;;103812;1293;545353;-73
2024/01/18 19:26:34;;;;;;;35.40;20.00;;;;;;;;;;103658;1291;545429;-74
2024/01/18 19:30:12;;;;;;;23.50;13.70;;;;;;;;;;103824;1289;544738;-73
2024/01/18 19:33:52;;;;;;;49.10;26.20;;;;;;;;;;103671;1295;545828;-73
2024/01/18 19:37:23;;;;;;;30.70;15.70;;;;;;;;;;103821;1288;545016;-73
2024/01/18 19:41:04;;;;;;;25.70;13.70;;;;;;;;;;103777;1291;545088;-73
2024/01/18 19:44:42;;;;;;;23.50;12.00;;;;;;;;;;103785;1291;544874;-73
2024/01/18 19:48:19;;;;;;;32.10;16.20;;;;;;;;;;103686;1292;544901;-73
2024/01/18 19:51:57;;;;;;;29.30;18.00;;;;;;;;;;103770;1289;545427;-73
2024/01/18 19:55:34;;;;;;;27.50;15.00;;;;;;;;;;103754;1292;544799;-73
2024/01/18 19:59:07;;;;;;;19.30;10.90;;;;;;;;;;103811;1289;544833;-73
2024/01/18 20:02:55;;;;;;;28.80;16.10;;;;;;;;;;103641;1293;547805;-73
2024/01/18 20:06:26;;;;;;;21.80;12.90;;;;;;;;;;103845;1289;545069;-73
2024/01/18 20:10:04;;;;;;;18.20;11.00;;;;;;;;;;103703;1295;545420;-72
2024/01/18 20:13:37;;;;;;;17.50;10.90;;;;;;;;;;103985;1292;544916;-74
2024/01/18 20:17:18;;;;;;;18.00;11.30;;;;;;;;;;103573;1291;544810;-73
2024/01/18 20:21:03;;;;;;;18.80;12.50;;;;;;;;;;103615;1292;548098;-73
2024/01/18 20:24:35;;;;;;;19.00;11.50;;;;;;;;;;103722;1292;545643;-72
2024/01/18 20:28:11;;;;;;;18.20;11.30;;;;;;;;;;103717;1292;544722;-74
2024/01/18 20:31:49;;;;;;;20.20;11.10;;;;;;;;;;103754;1291;545187;-73